createdAt,value
2023-03-30T00:01:05.983Z,47.70
2023-03-30T00:03:33.370Z,46.67
2023-03-30T00:06:05.236Z,44.63
2023-03-30T00:08:33.425Z,50.05
2023-03-30T00:11:02.064Z,46.17
2023-03-30T00:13:29.357Z,43.20
2023-03-30T00:15:56.221Z,43.58
2023-03-30T00:18:22.792Z,40.22
2023-03-30T00:20:50.721Z,41.45
2023-03-30T00:23:20.596Z,41.25
2023-03-30T00:25:47.160Z,41.10
2023-03-30T00:28:14.047Z,42.55
2023-03-30T00:30:40.527Z,39.72
2023-03-30T00:33:07.242Z,42.33
2023-03-30T00:35:33.952Z,40.17
2023-03-30T00:38:04.255Z,41.38
2023-03-30T00:43:06.551Z,41.08
2023-03-30T00:45:34.886Z,44.33
2023-03-30T00:48:07.049Z,39.95
2023-03-30T00:50:44.900Z,44.30
2023-03-30T00:53:19.120Z,48.63
2023-03-30T00:55:48.578Z,46.65
2023-03-30T00:58:17.926Z,43.20
2023-03-30T01:00:47.262Z,39.73
2023-03-30T01:03:24.889Z,50.67
2023-03-30T01:05:53.129Z,43.08
2023-03-30T01:08:20.510Z,41.00
2023-03-30T01:10:47.149Z,37.50
2023-03-30T01:13:15.118Z,39.40
2023-03-30T01:16:01.564Z,43.60
2023-03-30T01:18:48.011Z,39.92
2023-03-30T01:21:15.950Z,39.22
2023-03-30T01:24:22.283Z,40.60
2023-03-30T01:26:57.898Z,38.35
2023-03-30T01:29:24.648Z,42.17
2023-03-30T01:32:27.574Z,43.97
2023-03-30T01:35:12.627Z,44.53
2023-03-30T01:37:48.651Z,41.08
2023-03-30T01:40:27.572Z,38.10
2023-03-30T01:43:09.238Z,42.63
2023-03-30T01:45:43.344Z,40.70
2023-03-30T01:48:45.324Z,40.50
2023-03-30T01:51:19.666Z,38.03
2023-03-30T01:54:17.898Z,43.50
2023-03-30T01:56:50.863Z,45.10
2023-03-30T01:59:23.851Z,50.17
2023-03-30T02:01:54.117Z,46.78
2023-03-30T02:06:59.628Z,45.25
2023-03-30T02:09:29.152Z,48.63
2023-03-30T02:11:56.937Z,46.15
2023-03-30T02:14:28.701Z,46.92
2023-03-30T02:17:04.720Z,47.75
2023-03-30T02:19:31.801Z,48.38
2023-03-30T02:21:59.043Z,51.25
2023-03-30T02:24:28.950Z,49.45
2023-03-30T02:26:55.849Z,56.45
2023-03-30T02:29:23.097Z,53.20
2023-03-30T02:31:53.420Z,52.05
2023-03-30T02:34:43.452Z,53.90
2023-03-30T02:37:20.972Z,52.85
2023-03-30T02:39:59.286Z,51.95
2023-03-30T02:43:04.925Z,51.67
2023-03-30T02:45:42.044Z,49.85
2023-03-30T02:48:27.394Z,51.90
2023-03-30T02:51:14.404Z,49.55
2023-03-30T02:53:53.256Z,52.03
2023-03-30T02:56:31.878Z,48.75
2023-03-30T02:59:10.308Z,46.58
2023-03-30T03:01:44.129Z,52.03
2023-03-30T03:04:18.822Z,47.60
2023-03-30T03:06:46.331Z,51.20
2023-03-30T03:09:12.728Z,47.72
2023-03-30T03:11:39.293Z,49.17
2023-03-30T03:14:05.915Z,49.67
2023-03-30T03:16:32.412Z,52.65
2023-03-30T03:18:58.834Z,50.38
2023-03-30T03:21:25.291Z,53.40
2023-03-30T03:23:51.801Z,49.22
2023-03-30T03:26:18.591Z,44.83
2023-03-30T03:28:45.068Z,48.60
2023-03-30T03:31:12.203Z,48.88
2023-03-30T03:33:38.686Z,52.17
2023-03-30T03:36:05.816Z,52.20
2023-03-30T03:38:32.891Z,55.42
2023-03-30T03:40:59.874Z,49.72
2023-03-30T03:43:26.581Z,52.25
2023-03-30T03:45:53.380Z,48.38
2023-03-30T03:48:22.149Z,54.20
2023-03-30T03:50:53.328Z,56.15
2023-03-30T03:53:20.446Z,54.75
2023-03-30T03:55:47.167Z,55.20
2023-03-30T03:58:14.897Z,60.58
2023-03-30T04:00:41.532Z,57.67
2023-03-30T04:03:09.232Z,57.20
2023-03-30T04:05:36.409Z,57.95
2023-03-30T04:08:03.257Z,53.95
2023-03-30T04:10:30.206Z,55.55
2023-03-30T04:12:58.100Z,59.40
2023-03-30T04:15:25.396Z,55.50
2023-03-30T04:17:57.912Z,52.55
2023-03-30T04:20:26.533Z,56.70
2023-03-30T04:22:53.541Z,54.38
2023-03-30T04:25:28.852Z,56.42
2023-03-30T04:27:56.738Z,55.92
2023-03-30T04:30:23.698Z,56.08
2023-03-30T04:33:03.356Z,58.38
2023-03-30T04:37:58.321Z,57.72
2023-03-30T04:40:24.897Z,52.83
2023-03-30T04:42:51.318Z,52.38
2023-03-30T04:45:19.030Z,49.92
2023-03-30T04:47:48.575Z,50.70
2023-03-30T04:50:15.615Z,58.97
2023-03-30T04:52:42.242Z,59.88
2023-03-30T04:55:09.915Z,52.33
2023-03-30T04:57:36.417Z,53.83
2023-03-30T05:00:08.111Z,51.30
2023-03-30T05:02:35.156Z,53.38
2023-03-30T05:05:01.975Z,48.38
2023-03-30T05:07:28.465Z,49.63
2023-03-30T05:09:54.977Z,48.75
2023-03-30T05:12:21.643Z,48.05
2023-03-30T05:14:48.103Z,48.38
2023-03-30T05:17:14.581Z,49.70
2023-03-30T05:19:41.471Z,49.30
2023-03-30T05:22:08.244Z,51.67
2023-03-30T05:24:34.743Z,51.20
2023-03-30T05:27:02.252Z,47.78
2023-03-30T05:29:28.746Z,44.03
2023-03-30T05:31:55.401Z,45.58
2023-03-30T05:34:21.912Z,49.83
2023-03-30T05:36:48.459Z,41.97
2023-03-30T05:39:15.225Z,38.05
2023-03-30T05:41:41.659Z,36.42
2023-03-30T05:44:08.207Z,42.40
2023-03-30T05:46:34.740Z,34.63
2023-03-30T05:49:01.377Z,33.17
2023-03-30T05:51:28.404Z,27.73
2023-03-30T05:53:54.986Z,27.42
2023-03-30T05:56:23.486Z,27.10
2023-03-30T05:58:49.953Z,40.22
2023-03-30T06:01:16.894Z,48.47
2023-03-30T06:03:43.658Z,44.58
2023-03-30T06:06:10.913Z,48.42
2023-03-30T06:08:37.358Z,48.63
2023-03-30T06:11:04.563Z,46.47
2023-03-30T06:13:31.881Z,45.78
2023-03-30T06:15:59.657Z,46.17
2023-03-30T06:18:28.019Z,47.28
2023-03-30T06:20:54.459Z,47.00
2023-03-30T06:23:21.194Z,48.75
2023-03-30T06:25:53.156Z,45.50
2023-03-30T06:28:20.594Z,50.78
2023-03-30T06:30:49.143Z,47.95
2023-03-30T06:33:19.294Z,46.13
2023-03-30T06:35:51.160Z,49.47
2023-03-30T06:38:19.485Z,46.53
2023-03-30T06:40:46.004Z,45.55
2023-03-30T06:43:17.965Z,47.80
2023-03-30T06:45:51.047Z,46.90
2023-03-30T06:48:19.714Z,45.63
2023-03-30T06:50:47.391Z,48.08
2023-03-30T06:53:14.085Z,47.08
2023-03-30T06:55:42.089Z,47.50
2023-03-30T06:58:09.548Z,46.25
2023-03-30T07:00:36.393Z,46.83
2023-03-30T07:03:04.071Z,45.15
2023-03-30T07:05:30.655Z,45.17
2023-03-30T07:07:57.547Z,45.25
2023-03-30T07:10:24.225Z,42.95
2023-03-30T07:12:50.676Z,41.78
2023-03-30T07:15:17.770Z,40.10
2023-03-30T07:17:45.036Z,38.67
2023-03-30T07:20:14.909Z,42.80
2023-03-30T07:22:44.811Z,41.03
2023-03-30T07:25:11.480Z,40.28
2023-03-30T07:27:38.184Z,42.95
2023-03-30T07:30:18.005Z,38.88
2023-03-30T07:32:48.987Z,39.72
2023-03-30T07:35:15.821Z,38.75
2023-03-30T07:37:43.004Z,40.50
2023-03-30T07:40:10.052Z,40.20
2023-03-30T07:42:37.185Z,40.65
2023-03-30T07:45:04.860Z,39.92
2023-03-30T07:47:31.396Z,45.72
2023-03-30T07:49:58.390Z,40.30
2023-03-30T07:52:25.271Z,38.65
2023-03-30T07:54:52.433Z,43.78
2023-03-30T07:57:19.042Z,39.97
2023-03-30T07:59:45.816Z,38.67
2023-03-30T08:02:14.279Z,37.65
2023-03-30T08:04:44.510Z,37.15
2023-03-30T08:07:12.065Z,37.95
2023-03-30T08:09:39.672Z,37.83
2023-03-30T08:12:07.409Z,33.95
2023-03-30T08:14:33.917Z,32.05
2023-03-30T08:17:00.700Z,32.42
2023-03-30T08:19:28.502Z,30.15
2023-03-30T08:21:56.743Z,28.70
2023-03-30T08:24:23.372Z,29.52
2023-03-30T08:26:49.823Z,26.90
2023-03-30T08:29:17.045Z,28.10
2023-03-30T08:31:43.732Z,28.55
2023-03-30T08:34:10.247Z,25.33
2023-03-30T08:36:36.716Z,36.47
2023-03-30T08:39:05.071Z,26.85
2023-03-30T08:41:59.860Z,24.02
2023-03-30T08:44:26.482Z,25.58
2023-03-30T08:46:54.736Z,25.98
2023-03-30T08:49:22.278Z,24.70
2023-03-30T08:51:52.768Z,33.15
2023-03-30T08:54:22.292Z,27.73
2023-03-30T08:57:04.731Z,23.80
2023-03-30T08:59:52.062Z,21.42
2023-03-30T09:02:23.542Z,25.70
2023-03-30T09:05:04.729Z,20.25
2023-03-30T09:07:39.835Z,20.00
2023-03-30T09:10:13.668Z,23.63
2023-03-30T09:12:48.090Z,18.83
2023-03-30T09:15:31.893Z,19.90
2023-03-30T09:18:01.631Z,21.58
2023-03-30T09:20:30.599Z,22.35
2023-03-30T09:23:01.930Z,16.85
2023-03-30T09:25:31.371Z,19.08
2023-03-30T09:28:17.795Z,16.35
2023-03-30T09:30:51.983Z,17.85
2023-03-30T09:33:33.453Z,16.58
2023-03-30T09:36:11.619Z,16.00
2023-03-30T09:38:41.765Z,20.27
2023-03-30T09:41:24.403Z,22.20
2023-03-30T09:43:51.763Z,21.83
2023-03-30T09:46:18.369Z,25.85
2023-03-30T09:48:49.803Z,17.55
2023-03-30T09:51:31.083Z,18.17
2023-03-30T09:54:01.733Z,19.15
2023-03-30T09:58:56.268Z,26.42
2023-03-30T10:01:34.312Z,22.55
2023-03-30T10:04:11.402Z,17.25
2023-03-30T10:06:46.735Z,18.73
2023-03-30T10:09:14.271Z,21.10
2023-03-30T10:11:52.054Z,16.05
2023-03-30T10:14:38.922Z,14.80
2023-03-30T10:17:06.611Z,18.88
2023-03-30T10:19:37.134Z,19.10
2023-03-30T10:22:17.070Z,17.83
2023-03-30T10:25:18.032Z,12.70
2023-03-30T10:27:45.585Z,14.05
2023-03-30T10:30:18.292Z,11.77
2023-03-30T10:32:48.543Z,13.10
2023-03-30T10:35:21.991Z,15.88
2023-03-30T10:37:52.476Z,12.38
2023-03-30T10:40:27.607Z,15.57
2023-03-30T10:42:57.549Z,14.75
2023-03-30T10:45:40.923Z,15.77
2023-03-30T10:48:37.767Z,15.20
2023-03-30T10:51:15.857Z,12.00
2023-03-30T10:54:13.153Z,13.35
2023-03-30T10:56:53.900Z,13.50
2023-03-30T10:59:48.246Z,15.18
2023-03-30T11:02:51.634Z,13.90
2023-03-30T11:05:33.180Z,13.27
2023-03-30T11:08:11.468Z,17.55
2023-03-30T11:10:46.184Z,16.90
2023-03-30T11:13:15.409Z,17.33
2023-03-30T11:15:53.804Z,13.43
2023-03-30T11:18:26.050Z,15.20
2023-03-30T11:20:56.883Z,14.55
2023-03-30T11:23:55.933Z,13.75
2023-03-30T11:26:39.274Z,20.55
2023-03-30T11:29:38.217Z,14.23
2023-03-30T11:32:16.245Z,11.43
2023-03-30T11:35:01.318Z,16.55
2023-03-30T11:37:43.205Z,13.57
2023-03-30T11:40:27.518Z,16.00
2023-03-30T11:42:54.952Z,15.98
2023-03-30T11:45:42.097Z,18.02
2023-03-30T11:48:30.081Z,17.58
2023-03-30T11:51:11.336Z,14.55
2023-03-30T11:53:56.522Z,14.70
2023-03-30T11:56:58.183Z,19.95
2023-03-30T11:59:56.307Z,18.67
2023-03-30T12:02:38.742Z,15.10
2023-03-30T12:05:16.794Z,17.42
2023-03-30T12:08:17.400Z,39.33
2023-03-30T12:10:47.630Z,34.67
2023-03-30T12:16:06.497Z,37.30
2023-03-30T12:18:58.066Z,39.40
2023-03-30T12:21:33.339Z,44.28
2023-03-30T12:24:31.237Z,46.40
2023-03-30T12:27:05.514Z,47.95
2023-03-30T12:32:28.373Z,51.75
2023-03-30T12:34:57.221Z,57.92
2023-03-30T12:37:36.290Z,44.15
2023-03-30T12:40:09.152Z,45.95
2023-03-30T12:42:46.169Z,44.47
2023-03-30T12:45:15.611Z,40.35
2023-03-30T12:48:20.833Z,37.30
2023-03-30T12:50:59.059Z,34.83
2023-03-30T12:53:47.184Z,33.72
2023-03-30T12:56:29.034Z,25.20
2023-03-30T12:59:23.245Z,30.52
2023-03-30T13:02:27.376Z,28.23
2023-03-30T13:04:54.309Z,29.08
2023-03-30T13:07:24.460Z,21.98
2023-03-30T13:12:40.160Z,25.13
2023-03-30T13:15:30.053Z,24.08
2023-03-30T13:17:58.110Z,22.55
2023-03-30T13:20:57.578Z,26.75
2023-03-30T13:23:27.324Z,25.98
2023-03-30T13:26:05.113Z,21.85
2023-03-30T13:29:09.198Z,24.83
2023-03-30T13:31:51.105Z,19.33
2023-03-30T13:34:29.105Z,16.35
2023-03-30T13:37:16.030Z,13.60
2023-03-30T13:39:52.725Z,19.83
2023-03-30T13:42:35.558Z,21.88
2023-03-30T13:45:14.803Z,19.15
2023-03-30T13:47:48.788Z,19.87
2023-03-30T13:50:18.452Z,15.52
2023-03-30T13:52:48.029Z,17.27
2023-03-30T13:55:24.426Z,14.73
2023-03-30T13:57:57.364Z,15.30
2023-03-30T14:00:47.262Z,15.35
2023-03-30T14:03:27.381Z,14.57
2023-03-30T14:06:03.226Z,16.17
2023-03-30T14:08:35.438Z,14.77
2023-03-30T14:11:06.960Z,18.00
2023-03-30T14:13:36.851Z,16.27
2023-03-30T14:16:03.616Z,12.43
2023-03-30T14:18:30.593Z,15.70
2023-03-30T14:21:00.679Z,17.77
2023-03-30T14:23:48.662Z,17.48
2023-03-30T14:26:18.065Z,19.45
2023-03-30T14:28:47.007Z,19.05
2023-03-30T14:31:19.698Z,18.58
2023-03-30T14:33:47.115Z,15.38
2023-03-30T14:36:17.714Z,17.52
2023-03-30T14:38:48.262Z,20.88
2023-03-30T14:41:22.606Z,22.55
2023-03-30T14:43:59.073Z,20.98
2023-03-30T14:46:38.685Z,22.13
2023-03-30T14:49:05.995Z,17.55
2023-03-30T14:51:42.353Z,19.00
2023-03-30T14:54:15.068Z,18.55
2023-03-30T14:56:44.690Z,20.55
2023-03-30T14:59:13.043Z,21.40
2023-03-30T15:01:40.716Z,18.30
2023-03-30T15:04:18.751Z,18.58
2023-03-30T15:06:47.311Z,17.65
2023-03-30T15:09:19.186Z,21.58
2023-03-30T15:11:51.512Z,21.02
2023-03-30T15:14:22.300Z,17.00
2023-03-30T15:16:53.853Z,16.80
2023-03-30T15:19:31.922Z,18.13
2023-03-30T15:22:03.200Z,19.02
2023-03-30T15:24:35.051Z,17.25
2023-03-30T15:27:05.356Z,21.08
2023-03-30T15:29:33.090Z,24.10
2023-03-30T15:32:22.129Z,33.58
2023-03-30T15:35:22.373Z,33.72
2023-03-30T15:40:47.372Z,32.55
2023-03-30T15:43:36.663Z,32.50
2023-03-30T15:46:12.572Z,33.67
2023-03-30T15:48:49.856Z,31.58
2023-03-30T15:51:33.291Z,31.13
2023-03-30T15:54:03.127Z,31.48
2023-03-30T15:56:37.592Z,28.73
2023-03-30T15:59:05.885Z,28.63
2023-03-30T16:01:52.647Z,26.08
2023-03-30T16:04:21.603Z,28.55
2023-03-30T16:06:48.304Z,25.05
2023-03-30T16:09:16.127Z,23.48
2023-03-30T16:11:45.057Z,23.92
2023-03-30T16:14:14.724Z,31.08
2023-03-30T16:16:41.313Z,26.40
2023-03-30T16:19:17.344Z,27.92
2023-03-30T16:21:45.402Z,28.30
2023-03-30T16:24:12.918Z,32.95
2023-03-30T16:26:39.758Z,26.65
2023-03-30T16:29:21.897Z,26.60
2023-03-30T16:31:49.818Z,26.73
2023-03-30T16:34:16.471Z,37.25
2023-03-30T16:36:45.944Z,29.98
2023-03-30T16:39:27.225Z,27.50
2023-03-30T16:41:54.872Z,27.85
2023-03-30T16:44:23.313Z,23.42
2023-03-30T16:46:51.351Z,28.67
2023-03-30T16:49:21.717Z,39.75
2023-03-30T16:51:48.557Z,32.25
2023-03-30T16:54:29.531Z,24.70
2023-03-30T16:56:57.641Z,24.20
2023-03-30T16:59:26.415Z,24.80
2023-03-30T17:01:53.117Z,28.25
2023-03-30T17:04:19.843Z,29.70
2023-03-30T17:06:46.441Z,28.55
2023-03-30T17:09:17.087Z,24.85
2023-03-30T17:11:45.085Z,32.03
2023-03-30T17:14:11.896Z,25.02
2023-03-30T17:16:39.622Z,30.25
2023-03-30T17:19:09.688Z,26.05
2023-03-30T17:21:36.117Z,23.70
2023-03-30T17:24:02.790Z,30.33
2023-03-30T17:26:29.211Z,26.83
2023-03-30T17:28:55.684Z,27.23
2023-03-30T17:31:22.756Z,25.60
2023-03-30T17:33:49.444Z,28.50
2023-03-30T17:36:21.460Z,26.40
2023-03-30T17:38:48.919Z,25.73
2023-03-30T17:41:17.101Z,24.05
2023-03-30T17:43:43.805Z,22.48
2023-03-30T17:46:14.565Z,31.00
2023-03-30T17:48:42.163Z,30.92
2023-03-30T17:51:09.241Z,27.38
2023-03-30T17:53:35.848Z,35.83
2023-03-30T17:56:02.305Z,36.90
2023-03-30T17:58:34.618Z,36.55
2023-03-30T18:01:04.478Z,33.38
2023-03-30T18:03:31.453Z,30.45
2023-03-30T18:06:00.162Z,26.27
2023-03-30T18:08:27.416Z,30.48
2023-03-30T18:10:58.656Z,36.33
2023-03-30T18:13:27.598Z,29.40
2023-03-30T18:15:56.095Z,34.58
2023-03-30T18:18:26.226Z,27.80
2023-03-30T18:20:55.351Z,39.05
2023-03-30T18:23:22.888Z,42.58
2023-03-30T18:25:49.866Z,53.50
2023-03-30T18:28:19.315Z,52.47
2023-03-30T18:30:46.449Z,49.63
2023-03-30T18:33:15.963Z,47.90
2023-03-30T18:35:44.152Z,54.28
2023-03-30T18:38:12.602Z,50.55
2023-03-30T18:40:45.360Z,47.72
2023-03-30T18:43:12.725Z,79.43
2023-03-30T18:45:41.605Z,99.35
2023-03-30T18:48:11.355Z,59.42
2023-03-30T18:50:41.233Z,56.50
2023-03-30T18:53:13.486Z,45.13
2023-03-30T18:55:43.152Z,55.60
2023-03-30T18:58:21.043Z,48.63
2023-03-30T19:00:48.902Z,46.05
2023-03-30T19:03:16.697Z,54.20
2023-03-30T19:05:44.327Z,56.33
2023-03-30T19:08:12.635Z,48.63
2023-03-30T19:10:41.500Z,56.95
2023-03-30T19:13:11.941Z,56.22
2023-03-30T19:15:38.455Z,49.90
2023-03-30T19:18:05.624Z,50.88
2023-03-30T19:20:35.142Z,52.55
2023-03-30T19:23:01.606Z,53.90
2023-03-30T19:25:28.732Z,56.67
2023-03-30T19:28:03.227Z,51.33
2023-03-30T19:30:32.771Z,50.28
2023-03-30T19:33:02.192Z,51.90
2023-03-30T19:35:29.067Z,51.95
2023-03-30T19:37:56.229Z,53.83
2023-03-30T19:40:23.485Z,49.70
2023-03-30T19:42:50.811Z,50.95
2023-03-30T19:45:20.278Z,47.30
2023-03-30T19:47:47.055Z,60.78
2023-03-30T19:50:18.198Z,48.78
2023-03-30T19:52:48.528Z,58.47
2023-03-30T19:55:16.000Z,63.47
2023-03-30T19:57:42.617Z,58.08
2023-03-30T20:00:16.587Z,54.55
2023-03-30T20:02:45.829Z,55.35
2023-03-30T20:05:13.038Z,51.83
2023-03-30T20:07:40.685Z,56.75
2023-03-30T20:10:09.974Z,67.60
2023-03-30T20:12:37.043Z,64.28
2023-03-30T20:15:05.898Z,54.60
2023-03-30T20:17:34.231Z,55.25
2023-03-30T20:20:06.753Z,51.45
2023-03-30T20:22:38.437Z,51.65
2023-03-30T20:25:07.908Z,56.47
2023-03-30T20:27:35.863Z,52.25
2023-03-30T20:30:04.207Z,60.63
2023-03-30T20:32:30.759Z,57.35
2023-03-30T20:34:57.327Z,58.08
2023-03-30T20:37:23.810Z,61.22
2023-03-30T20:39:50.539Z,66.13
2023-03-30T20:42:25.794Z,61.67
2023-03-30T20:44:53.451Z,61.30
2023-03-30T20:47:23.170Z,60.15
2023-03-30T20:49:49.716Z,53.95
2023-03-30T20:52:16.895Z,63.95
2023-03-30T20:54:44.673Z,60.75
2023-03-30T20:57:11.690Z,58.33
2023-03-30T20:59:39.381Z,56.13
2023-03-30T21:02:05.908Z,73.75
2023-03-30T21:04:36.885Z,51.70
2023-03-30T21:07:06.744Z,55.72
2023-03-30T21:09:34.110Z,63.47
2023-03-30T21:12:00.658Z,63.83
2023-03-30T21:14:27.340Z,57.22
2023-03-30T21:16:53.928Z,61.63
2023-03-30T21:19:20.489Z,65.55
2023-03-30T21:21:47.073Z,54.47
2023-03-30T21:24:13.869Z,54.97
2023-03-30T21:26:40.836Z,68.93
2023-03-30T21:29:07.300Z,52.47
2023-03-30T21:31:33.887Z,64.65
2023-03-30T21:34:01.150Z,57.95
2023-03-30T21:36:27.787Z,74.18
2023-03-30T21:38:56.230Z,71.32
2023-03-30T21:41:24.205Z,60.10
2023-03-30T21:43:50.805Z,56.42
2023-03-30T21:46:21.030Z,62.97
2023-03-30T21:51:19.650Z,74.43
2023-03-30T21:53:51.257Z,67.38
2023-03-30T21:56:19.709Z,70.90
2023-03-30T21:58:46.460Z,60.70
2023-03-30T22:01:13.158Z,58.65
2023-03-30T22:03:41.361Z,63.88
2023-03-30T22:06:10.833Z,46.97
2023-03-30T22:08:37.768Z,58.67
2023-03-30T22:11:06.250Z,64.82
2023-03-30T22:13:33.488Z,70.47
2023-03-30T22:16:02.473Z,64.18
2023-03-30T22:18:29.913Z,63.90
2023-03-30T22:21:00.993Z,61.33
2023-03-30T22:23:27.622Z,61.08
2023-03-30T22:25:54.302Z,55.97
2023-03-30T22:28:20.937Z,68.47
2023-03-30T22:30:48.202Z,64.93
2023-03-30T22:33:14.993Z,59.03
2023-03-30T22:35:43.846Z,67.10
2023-03-30T22:38:11.173Z,71.13
2023-03-30T22:40:39.617Z,62.03
2023-03-30T22:43:06.314Z,65.82
2023-03-30T22:45:33.249Z,55.72
2023-03-30T22:47:59.775Z,72.40
2023-03-30T22:50:27.828Z,52.83
2023-03-30T22:52:56.098Z,61.00
2023-03-30T22:55:23.716Z,55.40
2023-03-30T22:57:53.231Z,58.00
2023-03-30T23:00:21.198Z,65.38
2023-03-30T23:02:49.790Z,59.03
2023-03-30T23:05:17.057Z,64.95
2023-03-30T23:07:44.231Z,53.65
2023-03-30T23:10:14.667Z,77.95
2023-03-30T23:15:08.950Z,63.80
2023-03-30T23:17:35.821Z,56.58
2023-03-30T23:20:05.377Z,50.72
2023-03-30T23:22:33.925Z,56.90
2023-03-30T23:25:00.372Z,52.30
2023-03-30T23:27:27.049Z,55.05
2023-03-30T23:29:53.536Z,53.17
2023-03-30T23:32:19.994Z,60.88
2023-03-30T23:34:46.717Z,69.90
2023-03-30T23:37:13.389Z,60.05
2023-03-30T23:39:40.092Z,56.17
2023-03-30T23:42:07.075Z,54.35
2023-03-30T23:44:34.103Z,66.25
2023-03-30T23:47:00.865Z,67.93
2023-03-30T23:49:27.335Z,71.55
2023-03-30T23:51:53.893Z,57.10
2023-03-30T23:54:21.154Z,64.25
2023-03-30T23:56:48.986Z,59.00
2023-03-30T23:59:16.023Z,62.58
